Time;durP1;ratioP1;P1;durP2;ratioP2;P2;SDS_P1;SDS_P2;PMS_P1;PMS_P2;Temp;Humidity;BMP_temperature;BMP_pressure;BME280_temperature;BME280_humidity;BME280_pressure;Samples;Min_cycle;Max_cycle;Signal;HPM_P1;HPM_P2
2021/12/02 00:00:26;;;;;;;;;;;;;;;-0.57;79.19;94906.56;5054580;28;1034;-49
2021/12/02 00:02:52;;;;;;;;;;;;;;;-0.40;79.17;94903.69;5054273;28;990;-49
2021/12/02 00:05:18;;;;;;;;;;;;;;;-0.44;79.65;94911.84;5054395;28;1981;-49
2021/12/02 00:07:44;;;;;;;;;;;;;;;-0.55;80.05;94909.09;5054074;28;969;-49
2021/12/02 00:10:10;;;;;;;;;;;;;;;-0.75;77.64;94908.59;5054351;28;954;-49
2021/12/02 00:12:36;;;;;;;;;;;;;;;-0.75;77.98;94923.53;5054284;28;986;-49
2021/12/02 00:15:05;;;;;;;;;;;;;;;-0.73;78.60;94926.88;5054327;28;1061;-49
2021/12/02 00:17:36;;;;;;;;;;;;;;;-0.70;79.38;94930.16;5053983;28;1914;-51
2021/12/02 00:22:48;;;;;;;;;;;;;;;-0.55;77.69;94925.72;5053638;28;1093;-51
2021/12/02 00:25:14;;;;;;;;;;;;;;;-0.86;78.23;94932.06;5054009;28;1085;-51
2021/12/02 00:27:43;;;;;;;;;;;;;;;-0.80;79.38;94929.91;5054157;28;966;-51
2021/12/02 00:30:09;;;;;;;;;;;;;;;-0.77;78.19;94920.16;5054043;28;958;-51
2021/12/02 00:32:40;;;;;;;;;;;;;;;-0.92;77.90;94922.81;5053906;28;1013;-51
2021/12/02 00:35:08;;;;;;;;;;;;;;;-0.83;78.00;94924.00;5053733;28;1029;-51
2021/12/02 00:37:36;;;;;;;;;;;;;;;-1.02;79.12;94926.97;5053509;28;1906;-51
2021/12/02 00:40:03;;;;;;;;;;;;;;;-0.91;80.35;94926.25;5053851;28;1024;-51
2021/12/02 00:42:29;;;;;;;;;;;;;;;-0.82;80.58;94933.56;5053856;28;990;-51
2021/12/02 00:44:57;;;;;;;;;;;;;;;-0.76;80.37;94927.91;5053378;28;1121;-51
2021/12/02 00:47:23;;;;;;;;;;;;;;;-0.87;77.77;94925.97;5053538;28;1025;-52
2021/12/02 00:49:49;;;;;;;;;;;;;;;-1.18;79.14;94921.81;5053246;28;1054;-51
2021/12/02 00:52:15;;;;;;;;;;;;;;;-1.06;79.70;94915.81;5053150;28;1116;-52
2021/12/02 00:54:42;;;;;;;;;;;;;;;-0.80;79.54;94922.03;5053184;28;1121;-50
2021/12/02 00:57:09;;;;;;;;;;;;;;;-0.61;80.39;94919.06;5053647;28;1910;-49
2021/12/02 00:59:35;;;;;;;;;;;;;;;-0.66;77.62;94915.88;5053244;28;998;-49
2021/12/02 01:02:01;;;;;;;;;;;;;;;-0.99;79.74;94916.25;5053440;28;966;-49
2021/12/02 01:04:27;;;;;;;;;;;;;;;-1.04;80.41;94913.94;5052809;28;1098;-49
2021/12/02 01:06:54;;;;;;;;;;;;;;;-1.16;79.19;94906.81;5053123;28;985;-49
2021/12/02 01:09:20;;;;;;;;;;;;;;;-1.05;79.66;94914.03;5052982;28;965;-49
2021/12/02 01:11:46;;;;;;;;;;;;;;;-0.93;80.51;94910.63;5053181;28;1064;-49
2021/12/02 01:14:12;;;;;;;;;;;;;;;-0.92;79.93;94911.47;5052883;28;1024;-49
2021/12/02 01:16:38;;;;;;;;;;;;;;;-1.10;79.90;94918.69;5052903;28;1330;-49
2021/12/02 01:19:06;;;;;;;;;;;;;;;-1.13;80.53;94930.25;5052444;28;1910;-49
2021/12/02 01:21:33;;;;;;;;;;;;;;;-1.07;81.19;94924.59;5052844;28;1989;-49
2021/12/02 01:24:00;;;;;;;;;;;;;;;-1.28;81.48;94926.78;5052885;28;986;-49
2021/12/02 01:26:27;;;;;;;;;;;;;;;-1.39;82.89;94935.31;5053022;28;966;-49
2021/12/02 01:28:55;;;;;;;;;;;;;;;-1.23;81.80;94931.78;5052548;28;1060;-49
2021/12/02 01:31:21;;;;;;;;;;;;;;;-1.20;81.57;94927.16;5052813;28;1041;-49
2021/12/02 01:33:47;;;;;;;;;;;;;;;-1.26;82.08;94924.06;5052473;28;1042;-49
2021/12/02 01:36:14;;;;;;;;;;;;;;;-1.24;82.15;94927.44;5052746;28;978;-49
2021/12/02 01:38:40;;;;;;;;;;;;;;;-1.25;82.08;94926.63;5052383;28;1909;-49
2021/12/02 01:41:06;;;;;;;;;;;;;;;-1.17;81.67;94913.00;5052314;28;1010;-49
2021/12/02 01:43:43;;;;;;;;;;;;;;;-1.21;81.41;94928.09;5052467;28;1057;-49
2021/12/02 01:46:09;;;;;;;;;;;;;;;-1.20;81.92;94919.28;5052833;28;1021;-49
2021/12/02 01:48:39;;;;;;;;;;;;;;;-1.11;81.48;94907.38;5052370;28;1024;-51
2021/12/02 01:51:06;;;;;;;;;;;;;;;-1.11;81.53;94907.38;5052603;28;805;-52
2021/12/02 01:53:36;;;;;;;;;;;;;;;-0.99;80.93;94911.00;5052605;28;962;-52
2021/12/02 01:56:10;;;;;;;;;;;;;;;-0.81;81.39;94922.97;5052648;28;1005;-52
2021/12/02 01:58:41;;;;;;;;;;;;;;;-0.68;80.97;94924.81;5052299;28;1898;-52
2021/12/02 02:01:13;;;;;;;;;;;;;;;-0.72;81.38;94929.41;5052035;28;1056;-52
2021/12/02 02:03:40;;;;;;;;;;;;;;;-0.77;81.36;94931.50;5052464;28;982;-52
2021/12/02 02:06:08;;;;;;;;;;;;;;;-0.88;80.82;94934.78;5052243;28;1042;-52
2021/12/02 02:08:35;;;;;;;;;;;;;;;-0.88;81.08;94937.41;5052414;28;1032;-52
2021/12/02 02:11:01;;;;;;;;;;;;;;;-0.82;81.13;94928.31;5052432;28;1020;-52
2021/12/02 02:13:27;;;;;;;;;;;;;;;-0.84;80.68;94930.19;5052239;28;1052;-51
2021/12/02 02:15:54;;;;;;;;;;;;;;;-0.86;79.89;94918.94;5051999;28;1089;-52
2021/12/02 02:18:21;;;;;;;;;;;;;;;-1.10;80.12;94914.31;5052146;28;1914;-52
2021/12/02 02:21:09;;;;;;;;;;;;;;;-1.14;81.04;94922.47;5052160;28;1348;-51
2021/12/02 02:23:38;;;;;;;;;;;;;;;-1.12;81.15;94931.09;5052136;28;1084;-52
2021/12/02 02:26:05;;;;;;;;;;;;;;;-1.28;83.72;94918.91;5052050;28;1028;-52
2021/12/02 02:28:32;;;;;;;;;;;;;;;-1.20;84.69;94923.69;5052214;28;966;-52
2021/12/02 02:30:58;;;;;;;;;;;;;;;-1.28;84.89;94931.19;5052211;28;990;-52
2021/12/02 02:33:25;;;;;;;;;;;;;;;-1.21;85.84;94935.97;5052139;28;1008;-52
2021/12/02 02:35:51;;;;;;;;;;;;;;;-1.10;84.46;94924.81;5052259;28;799;-52
2021/12/02 02:38:17;;;;;;;;;;;;;;;-1.20;84.59;94945.50;5052053;28;1906;-52
2021/12/02 02:40:45;;;;;;;;;;;;;;;-1.13;84.21;94934.66;5051939;28;988;-52
2021/12/02 02:43:19;;;;;;;;;;;;;;;-1.02;84.29;94927.78;5052268;28;978;-52
2021/12/02 02:45:46;;;;;;;;;;;;;;;-0.98;83.01;94934.53;5051808;28;1280;-52
2021/12/02 02:48:12;;;;;;;;;;;;;;;-1.20;83.21;94934.19;5052440;28;978;-52
2021/12/02 02:50:37;;;;;;;;;;;;;;;-1.17;84.24;94934.00;5051761;28;1098;-52
2021/12/02 02:53:06;;;;;;;;;;;;;;;-1.13;83.90;94937.28;5051970;28;978;-52
2021/12/02 02:55:34;;;;;;;;;;;;;;;-1.18;83.42;94942.78;5051606;28;1028;-52
2021/12/02 02:58:12;;;;;;;;;;;;;;;-1.25;83.75;94936.25;5051851;28;1914;-52
2021/12/02 03:00:47;;;;;;;;;;;;;;;-1.33;82.63;94926.22;5051685;28;1999;-52
2021/12/02 03:06:11;;;;;;;;;;;;;;;-1.35;82.42;94908.91;5051651;28;1136;-52
2021/12/02 03:08:48;;;;;;;;;;;;;;;-1.58;81.56;94912.00;5052045;28;974;-52
2021/12/02 03:11:16;;;;;;;;;;;;;;;-1.73;81.89;94905.06;5051655;28;1069;-52
2021/12/02 03:13:51;;;;;;;;;;;;;;;-1.60;81.60;94915.66;5053740;28;1903;-52
2021/12/02 03:19:40;;;;;;;;;;;;;;;-1.72;81.09;94916.41;4556072;28;2202;-52
2021/12/02 03:22:06;;;;;;;;;;;;;;;-1.75;82.47;94917.41;5055099;28;1029;-52
2021/12/02 03:24:32;;;;;;;;;;;;;;;-1.81;83.69;94913.38;5055140;28;2017;-52
2021/12/02 03:26:58;;;;;;;;;;;;;;;-1.82;83.97;94922.22;5054818;28;1224;-52
2021/12/02 03:29:24;;;;;;;;;;;;;;;-1.80;83.53;94914.25;5054922;28;1022;-52
2021/12/02 03:31:51;;;;;;;;;;;;;;;-1.69;83.97;94922.31;5054878;28;1061;-52
2021/12/02 03:34:17;;;;;;;;;;;;;;;-1.62;84.50;94914.91;5055049;28;1033;-52
2021/12/02 03:36:43;;;;;;;;;;;;;;;-1.61;83.71;94912.19;5055099;28;1205;-52
2021/12/02 03:39:10;;;;;;;;;;;;;;;-1.61;82.65;94909.56;5054790;28;1909;-52
2021/12/02 03:41:36;;;;;;;;;;;;;;;-1.80;83.75;94922.13;5054470;28;1056;-52
2021/12/02 03:44:02;;;;;;;;;;;;;;;-1.76;84.05;94921.00;5055127;28;978;-52
2021/12/02 03:46:28;;;;;;;;;;;;;;;-1.57;84.00;94915.47;5054438;28;1025;-52
2021/12/02 03:48:55;;;;;;;;;;;;;;;-1.45;83.88;94919.97;5054763;28;1037;-52
2021/12/02 03:51:21;;;;;;;;;;;;;;;-1.52;83.56;94925.69;5054413;28;1066;-52
2021/12/02 03:53:47;;;;;;;;;;;;;;;-1.56;83.95;94922.41;5054982;28;1037;-52
2021/12/02 03:56:13;;;;;;;;;;;;;;;-1.53;83.37;94924.00;5054086;28;950;-52
2021/12/02 03:58:42;;;;;;;;;;;;;;;-1.54;83.30;94917.91;5054775;28;1991;-52
2021/12/02 04:01:09;;;;;;;;;;;;;;;-1.68;83.10;94921.38;5053920;28;1049;-52
2021/12/02 04:03:35;;;;;;;;;;;;;;;-1.87;82.48;94913.75;5054517;28;1116;-52
2021/12/02 04:06:02;;;;;;;;;;;;;;;-2.12;83.10;94919.63;5054290;28;1292;-52
2021/12/02 04:08:42;;;;;;;;;;;;;;;-2.21;83.55;94913.13;5054690;28;1001;-52
2021/12/02 04:11:30;;;;;;;;;;;;;;;-2.06;84.31;94903.53;5053655;28;1049;-52
2021/12/02 04:14:09;;;;;;;;;;;;;;;-1.84;84.16;94897.00;5054584;28;1048;-52
2021/12/02 04:16:38;;;;;;;;;;;;;;;-1.82;83.72;94897.75;5054384;28;974;-52
2021/12/02 04:19:04;;;;;;;;;;;;;;;-1.78;82.86;94884.38;5052599;28;1918;-52
2021/12/02 04:21:31;;;;;;;;;;;;;;;-1.79;81.72;94890.56;5054189;28;1045;-52
2021/12/02 04:23:57;;;;;;;;;;;;;;;-1.75;81.18;94896.44;5054101;28;1049;-52
2021/12/02 04:26:23;;;;;;;;;;;;;;;-1.94;82.11;94899.34;5053709;28;994;-52
2021/12/02 04:28:49;;;;;;;;;;;;;;;-2.00;82.93;94897.94;5054055;28;986;-52
2021/12/02 04:31:15;;;;;;;;;;;;;;;-1.96;83.08;94893.34;5053819;28;970;-52
2021/12/02 04:33:41;;;;;;;;;;;;;;;-1.96;83.12;94885.50;5054146;28;1071;-52
2021/12/02 04:36:07;;;;;;;;;;;;;;;-1.85;83.60;94884.84;5053373;28;1109;-52
2021/12/02 04:38:33;;;;;;;;;;;;;;;-1.74;82.66;94884.22;5054048;28;1914;-52
2021/12/02 04:41:00;;;;;;;;;;;;;;;-1.65;81.49;94883.63;5053126;28;937;-52
2021/12/02 04:43:26;;;;;;;;;;;;;;;-1.79;80.34;94880.06;5053492;28;1045;-52
2021/12/02 04:45:52;;;;;;;;;;;;;;;-1.78;80.47;94886.16;5053302;28;1065;-52
2021/12/02 04:48:19;;;;;;;;;;;;;;;-1.87;81.53;94891.97;5053533;28;1033;-52
2021/12/02 04:50:45;;;;;;;;;;;;;;;-1.94;81.88;94885.41;5053400;28;1017;-52
2021/12/02 04:53:11;;;;;;;;;;;;;;;-2.10;79.75;94891.56;5053779;28;1121;-52
2021/12/02 04:55:38;;;;;;;;;;;;;;;-2.34;80.69;94893.00;5053078;28;2038;-52
2021/12/02 04:58:04;;;;;;;;;;;;;;;-2.24;82.97;94895.00;5053410;28;1995;-52
2021/12/02 05:00:30;;;;;;;;;;;;;;;-2.01;83.56;94884.91;5053185;28;1053;-52
2021/12/02 05:02:57;;;;;;;;;;;;;;;-2.01;82.56;94883.16;5053365;28;1029;-52
2021/12/02 05:05:23;;;;;;;;;;;;;;;-1.93;83.45;94889.72;5053207;28;1009;-52
2021/12/02 05:07:52;;;;;;;;;;;;;;;-1.95;83.45;94868.84;5053570;28;1155;-52
2021/12/02 05:10:19;;;;;;;;;;;;;;;-1.83;83.42;94872.50;5053038;28;1013;-52
2021/12/02 05:12:45;;;;;;;;;;;;;;;-1.89;83.62;94873.72;5052976;28;981;-50
2021/12/02 05:15:11;;;;;;;;;;;;;;;-1.80;83.61;94867.06;5053133;28;1044;-50
2021/12/02 05:17:37;;;;;;;;;;;;;;;-1.66;83.16;94869.69;5052823;28;1914;-50
2021/12/02 05:20:04;;;;;;;;;;;;;;;-1.69;82.88;94862.03;5044723;28;1198;-50
2021/12/02 05:22:30;;;;;;;;;;;;;;;-1.89;83.09;94857.16;5052804;28;1905;-50
2021/12/02 05:24:56;;;;;;;;;;;;;;;-1.79;83.77;94853.84;5052721;28;1283;-50
2021/12/02 05:27:22;;;;;;;;;;;;;;;-1.73;83.46;94852.63;5052368;28;1050;-50
2021/12/02 05:29:48;;;;;;;;;;;;;;;-1.71;83.64;94849.94;5052757;28;1069;-50
2021/12/02 05:32:13;;;;;;;;;;;;;;;-1.72;83.24;94849.09;5052496;28;1128;-50
2021/12/02 05:34:40;;;;;;;;;;;;;;;-1.71;83.01;94855.19;5052738;28;1044;-49
2021/12/02 05:37:06;;;;;;;;;;;;;;;-1.73;82.71;94863.13;5052098;28;1914;-50
2021/12/02 05:39:32;;;;;;;;;;;;;;;-1.66;82.81;94869.69;5052939;28;986;-50
2021/12/02 05:41:58;;;;;;;;;;;;;;;-1.67;82.65;94867.16;5051965;28;1886;-50
2021/12/02 05:44:24;;;;;;;;;;;;;;;-1.62;82.79;94852.00;5052941;28;1059;-50
2021/12/02 05:46:50;;;;;;;;;;;;;;;-1.61;82.60;94854.53;5052420;28;976;-50
2021/12/02 05:49:17;;;;;;;;;;;;;;;-1.77;82.63;94841.50;5052837;28;1138;-50
2021/12/02 05:51:44;;;;;;;;;;;;;;;-1.75;82.52;94851.88;5052651;28;1060;-50
2021/12/02 05:54:11;;;;;;;;;;;;;;;-1.65;82.26;94849.53;5052642;28;1020;-50
2021/12/02 05:56:37;;;;;;;;;;;;;;;-1.60;81.77;94850.09;5052178;28;966;-50
2021/12/02 05:59:03;;;;;;;;;;;;;;;-1.73;82.04;94841.31;5052396;28;1993;-50
2021/12/02 06:01:29;;;;;;;;;;;;;;;-1.74;81.65;94837.03;5052098;28;1479;-50
2021/12/02 06:03:55;;;;;;;;;;;;;;;-1.64;80.98;94836.34;5053111;28;997;-49
2021/12/02 06:06:24;;;;;;;;;;;;;;;-1.57;80.85;94834.19;5051983;28;1034;-50
2021/12/02 06:08:50;;;;;;;;;;;;;;;-1.44;80.38;94840.38;5052582;28;958;-50
2021/12/02 06:11:16;;;;;;;;;;;;;;;-1.50;80.30;94842.50;5051522;28;1085;-50
2021/12/02 06:13:42;;;;;;;;;;;;;;;-1.38;80.36;94853.09;5052467;28;1097;-49
2021/12/02 06:16:08;;;;;;;;;;;;;;;-1.42;80.28;94843.72;5051972;28;985;-50
2021/12/02 06:18:34;;;;;;;;;;;;;;;-1.17;80.48;94855.31;5052021;28;1902;-49
2021/12/02 06:21:00;;;;;;;;;;;;;;;-0.23;76.97;94843.91;5052113;28;1217;-50
2021/12/02 06:23:27;;;;;;;;;;;;;;;1.05;72.42;94850.84;5052182;28;1054;-50
2021/12/02 06:25:52;;;;;;;;;;;;;;;2.19;67.36;94847.66;5052128;28;1052;-49
2021/12/02 06:28:19;;;;;;;;;;;;;;;3.09;63.45;94840.56;5052045;28;1936;-50
2021/12/02 06:30:45;;;;;;;;;;;;;;;4.85;58.42;94836.50;5052137;28;981;-49
2021/12/02 06:33:12;;;;;;;;;;;;;;;5.96;55.58;94854.03;5051923;28;1057;-50
2021/12/02 06:35:39;;;;;;;;;;;;;;;7.21;51.47;94864.47;5052096;28;1036;-51
2021/12/02 06:38:05;;;;;;;;;;;;;;;3.71;59.90;94856.72;5052215;28;1910;-51
2021/12/02 06:40:32;;;;;;;;;;;;;;;1.75;67.13;94852.72;5051550;28;1029;-50
2021/12/02 06:42:58;;;;;;;;;;;;;;;1.75;67.69;94872.00;5052260;28;1057;-50
2021/12/02 06:45:24;;;;;;;;;;;;;;;1.21;70.84;94859.28;5051838;28;1145;-50
2021/12/02 06:47:52;;;;;;;;;;;;;;;0.28;74.40;94856.25;5054253;28;1893;-50
2021/12/02 06:50:20;;;;;;;;;;;;;;;-0.17;75.92;94850.53;5055693;28;1041;-50
2021/12/02 06:52:47;;;;;;;;;;;;;;;0.12;74.80;94845.94;5055913;28;1052;-50
2021/12/02 06:55:14;;;;;;;;;;;;;;;0.40;74.44;94860.66;5055563;28;977;-50
2021/12/02 06:57:40;;;;;;;;;;;;;;;0.52;74.13;94857.16;5055406;28;1906;-50
2021/12/02 07:00:08;;;;;;;;;;;;;;;-0.11;75.39;94844.91;5055568;28;1034;-50
2021/12/02 07:02:34;;;;;;;;;;;;;;;-0.11;76.45;94850.97;5055552;28;1963;-50
2021/12/02 07:05:01;;;;;;;;;;;;;;;-0.05;76.56;94852.34;5055771;28;1045;-50
2021/12/02 07:07:31;;;;;;;;;;;;;;;0.00;77.89;94858.16;5055748;28;1041;-50
2021/12/02 07:09:59;;;;;;;;;;;;;;;0.30;76.36;94849.09;5055566;28;1045;-51
2021/12/02 07:12:31;;;;;;;;;;;;;;;0.52;75.24;94848.44;5054978;28;1044;-50
2021/12/02 07:14:58;;;;;;;;;;;;;;;0.54;75.65;94836.03;5055768;28;1087;-50
2021/12/02 07:17:24;;;;;;;;;;;;;;;0.70;74.60;94839.25;5055102;28;1989;-49
2021/12/02 07:19:50;;;;;;;;;;;;;;;1.00;73.88;94838.00;5055102;28;1440;-50
2021/12/02 07:22:16;;;;;;;;;;;;;;;1.10;74.09;94843.44;5055178;28;985;-50
2021/12/02 07:24:42;;;;;;;;;;;;;;;1.08;74.30;94853.22;5055157;28;1060;-50
2021/12/02 07:27:08;;;;;;;;;;;;;;;0.66;75.30;94855.34;5055123;28;1036;-50
2021/12/02 07:29:34;;;;;;;;;;;;;;;0.58;75.55;94850.63;5055532;28;1044;-50
2021/12/02 07:32:04;;;;;;;;;;;;;;;0.56;76.16;94861.25;5055115;28;1044;-50
2021/12/02 07:34:33;;;;;;;;;;;;;;;0.25;76.89;94859.06;5055350;28;1044;-50
2021/12/02 07:36:59;;;;;;;;;;;;;;;0.21;77.07;94854.97;5054635;28;1092;-50
2021/12/02 07:39:25;;;;;;;;;;;;;;;0.03;78.77;94867.59;5055305;28;1914;-50
2021/12/02 07:41:51;;;;;;;;;;;;;;;-0.20;78.46;94865.56;5054772;28;1036;-50
2021/12/02 07:44:18;;;;;;;;;;;;;;;-0.29;79.16;94858.31;5054998;28;974;-50
2021/12/02 07:46:44;;;;;;;;;;;;;;;-0.23;79.32;94868.44;5054633;28;1081;-51
2021/12/02 07:49:14;;;;;;;;;;;;;;;-0.15;79.59;94865.28;5054822;28;982;-51
2021/12/02 07:51:42;;;;;;;;;;;;;;;-0.22;79.29;94862.22;5054572;28;1021;-50
2021/12/02 07:54:09;;;;;;;;;;;;;;;0.03;78.74;94855.28;5054647;28;1382;-50
2021/12/02 07:56:35;;;;;;;;;;;;;;;0.34;76.83;94858.44;5054509;28;1041;-50
2021/12/02 07:59:01;;;;;;;;;;;;;;;0.19;77.79;94858.56;5053856;28;1910;-58
2021/12/02 08:01:27;;;;;;;;;;;;;;;0.88;77.86;94852.88;5054391;28;1101;-49
2021/12/02 08:03:53;;;;;;;;;;;;;;;1.17;75.77;94844.66;5054742;28;1029;-50
2021/12/02 08:06:19;;;;;;;;;;;;;;;1.94;74.12;94844.25;5054298;28;969;-50
2021/12/02 08:08:46;;;;;;;;;;;;;;;2.08;72.12;94841.41;5054548;28;974;-50
2021/12/02 08:11:13;;;;;;;;;;;;;;;2.26;71.90;94838.34;5054147;28;1041;-50
2021/12/02 08:13:39;;;;;;;;;;;;;;;2.53;71.05;94835.34;5054469;28;1061;-52
2021/12/02 08:16:06;;;;;;;;;;;;;;;2.74;71.28;94841.56;5052959;28;1997;-50
2021/12/02 08:18:33;;;;;;;;;;;;;;;3.21;69.12;94832.63;5053993;28;2000;-51
2021/12/02 08:20:59;;;;;;;;;;;;;;;2.97;70.40;94828.34;5054160;28;1316;-50
2021/12/02 08:23:26;;;;;;;;;;;;;;;2.86;71.44;94839.75;5053981;28;1048;-50
2021/12/02 08:25:53;;;;;;;;;;;;;;;2.82;71.74;94843.59;5054144;28;1069;-50
2021/12/02 08:28:20;;;;;;;;;;;;;;;2.65;73.46;94844.09;5053619;28;1919;-50
2021/12/02 08:30:46;;;;;;;;;;;;;;;2.56;73.90;94836.88;5053944;28;1058;-50
2021/12/02 08:33:13;;;;;;;;;;;;;;;2.37;75.10;94835.69;5053474;28;1117;-50
2021/12/02 08:35:40;;;;;;;;;;;;;;;2.41;75.75;94839.78;5053742;28;1034;-50
2021/12/02 08:38:10;;;;;;;;;;;;;;;2.48;75.75;94845.41;5053334;28;1906;-50
2021/12/02 08:40:36;;;;;;;;;;;;;;;2.63;76.14;94838.09;5053652;28;1975;-50
2021/12/02 08:43:04;;;;;;;;;;;;;;;2.64;76.36;94837.97;5052516;28;949;-50
2021/12/02 08:45:30;;;;;;;;;;;;;;;2.74;76.39;94841.56;5053715;28;2033;-50
2021/12/02 08:47:57;;;;;;;;;;;;;;;3.26;73.97;94841.88;5053496;28;1196;-50
2021/12/02 08:50:24;;;;;;;;;;;;;;;3.78;72.04;94843.84;5053734;28;1052;-50
2021/12/02 08:52:51;;;;;;;;;;;;;;;5.08;67.13;94840.63;5053354;28;1101;-51
2021/12/02 08:55:18;;;;;;;;;;;;;;;7.56;59.96;94835.44;5053625;28;966;-51
2021/12/02 08:57:45;;;;;;;;;;;;;;;8.05;56.26;94821.75;5053398;28;2254;-51
2021/12/02 09:00:13;;;;;;;;;;;;;;;7.91;56.99;94809.81;5053352;28;1190;-51
2021/12/02 09:02:39;;;;;;;;;;;;;;;8.40;55.82;94807.53;5053169;28;1212;-51
2021/12/02 09:05:05;;;;;;;;;;;;;;;8.93;54.90;94809.19;5053252;28;1022;-51
2021/12/02 09:07:32;;;;;;;;;;;;;;;9.72;52.84;94798.31;5053413;28;1065;-51
2021/12/02 09:09:58;;;;;;;;;;;;;;;10.87;49.79;94791.09;5052881;28;1061;-51
2021/12/02 09:12:24;;;;;;;;;;;;;;;12.04;47.09;94779.63;5052955;28;1144;-51
2021/12/02 09:14:50;;;;;;;;;;;;;;;13.56;43.56;94780.22;5053590;28;1012;-51
2021/12/02 09:17:16;;;;;;;;;;;;;;;13.91;42.43;94767.00;5053089;28;1983;-51
2021/12/02 09:19:43;;;;;;;;;;;;;;;14.07;42.86;94771.28;5052559;28;1273;-52
2021/12/02 09:22:09;;;;;;;;;;;;;;;14.93;40.83;94759.56;5052751;28;999;-51
2021/12/02 09:24:36;;;;;;;;;;;;;;;16.42;37.86;94755.34;5052742;28;1124;-51
2021/12/02 09:27:02;;;;;;;;;;;;;;;19.14;33.64;94755.16;5053137;28;1032;-52
2021/12/02 09:29:29;;;;;;;;;;;;;;;20.52;30.73;94760.13;5053204;28;1009;-52
2021/12/02 09:31:55;;;;;;;;;;;;;;;19.68;31.57;94760.84;5052725;28;1041;-52
2021/12/02 09:34:21;;;;;;;;;;;;;;;17.99;33.97;94758.94;5052620;28;970;-52
2021/12/02 09:36:47;;;;;;;;;;;;;;;13.73;41.53;94756.66;5053135;28;1037;-51
2021/12/02 09:39:15;;;;;;;;;;;;;;;16.32;37.25;94758.47;5052269;28;1914;-51
2021/12/02 09:41:43;;;;;;;;;;;;;;;14.51;39.86;94737.94;5052769;28;982;-51
2021/12/02 09:44:09;;;;;;;;;;;;;;;17.01;36.06;94735.59;5052609;28;1056;-51
2021/12/02 09:46:38;;;;;;;;;;;;;;;14.05;40.83;94741.06;5052911;28;1028;-51
2021/12/02 09:49:05;;;;;;;;;;;;;;;12.80;44.57;94736.69;5052100;28;1049;-51
2021/12/02 09:51:38;;;;;;;;;;;;;;;12.06;46.92;94724.00;5052657;28;1069;-51
2021/12/02 09:54:14;;;;;;;;;;;;;;;16.11;38.65;94719.84;5052360;28;1043;-51
2021/12/02 09:56:42;;;;;;;;;;;;;;;18.33;33.96;94727.94;5052773;28;986;-51
2021/12/02 09:59:12;;;;;;;;;;;;;;;19.45;32.45;94718.16;5052118;28;1934;-52
2021/12/02 10:01:45;;;;;;;;;;;;;;;18.34;33.82;94726.03;5052561;28;1018;-52
2021/12/02 10:04:13;;;;;;;;;;;;;;;15.43;39.75;94717.97;5051976;28;1061;-51
2021/12/02 10:06:41;;;;;;;;;;;;;;;11.93;46.29;94691.63;5052722;28;1020;-50
2021/12/02 10:09:33;;;;;;;;;;;;;;;9.85;53.08;94705.19;5051829;28;1306;-50
2021/12/02 10:12:03;;;;;;;;;;;;;;;9.94;54.04;94689.97;5052292;28;1036;-50
2021/12/02 10:14:38;;;;;;;;;;;;;;;9.35;55.77;94692.81;5052680;28;1045;-50
2021/12/02 10:17:28;;;;;;;;;;;;;;;10.43;53.43;94686.44;5052218;28;1108;-50
2021/12/02 10:20:25;;;;;;;;;;;;;;;13.00;47.07;94688.66;5051916;28;1190;-50
2021/12/02 10:23:13;;;;;;;;;;;;;;;17.85;37.13;94682.50;5054662;28;1041;-51
2021/12/02 10:25:43;;;;;;;;;;;;;;;20.53;32.00;94680.34;5056446;28;965;-52
2021/12/02 10:28:11;;;;;;;;;;;;;;;21.77;30.07;94690.16;5056087;28;1108;-52
2021/12/02 10:30:41;;;;;;;;;;;;;;;21.77;29.41;94671.09;5056192;28;1063;-52
2021/12/02 10:33:09;;;;;;;;;;;;;;;21.61;29.85;94678.16;5056172;28;985;-52
2021/12/02 10:35:38;;;;;;;;;;;;;;;20.50;31.36;94665.31;5055930;28;1052;-52
2021/12/02 10:38:04;;;;;;;;;;;;;;;18.55;34.69;94657.16;5055665;28;1898;-52
2021/12/02 10:40:30;;;;;;;;;;;;;;;16.00;39.28;94643.06;5056036;28;1125;-51
2021/12/02 10:43:04;;;;;;;;;;;;;;;13.80;45.09;94636.66;5056181;28;1024;-51
2021/12/02 10:45:30;;;;;;;;;;;;;;;12.34;49.94;94637.66;5055742;28;1052;-51
2021/12/02 10:47:57;;;;;;;;;;;;;;;11.56;52.78;94635.16;5055795;28;981;-51
2021/12/02 10:50:24;;;;;;;;;;;;;;;11.10;54.17;94627.97;5055945;28;986;-51
2021/12/02 10:52:51;;;;;;;;;;;;;;;10.22;56.76;94612.16;5055604;28;1082;-50
2021/12/02 10:55:19;;;;;;;;;;;;;;;9.86;58.81;94608.06;5055628;28;986;-50
2021/12/02 10:57:54;;;;;;;;;;;;;;;10.09;58.07;94607.34;5055803;28;1914;-50
2021/12/02 11:00:24;;;;;;;;;;;;;;;9.75;59.44;94605.72;5055238;28;1002;-50
2021/12/02 11:02:53;;;;;;;;;;;;;;;9.40;60.89;94591.78;5055561;28;1099;-50
2021/12/02 11:05:25;;;;;;;;;;;;;;;9.79;59.79;94591.06;5055565;28;1037;-49
2021/12/02 11:08:07;;;;;;;;;;;;;;;10.06;58.63;94589.81;5055694;28;965;-50
2021/12/02 11:10:36;;;;;;;;;;;;;;;10.12;58.24;94582.97;5055345;28;970;-50
2021/12/02 11:13:02;;;;;;;;;;;;;;;10.12;58.48;94574.94;5055526;28;1038;-49
2021/12/02 11:15:29;;;;;;;;;;;;;;;10.20;59.28;94564.22;5055241;28;1872;-51
2021/12/02 11:17:57;;;;;;;;;;;;;;;10.53;57.62;94566.81;5055047;28;1987;-50
2021/12/02 11:20:23;;;;;;;;;;;;;;;10.29;58.06;94570.38;5055251;28;1253;-50
2021/12/02 11:22:53;;;;;;;;;;;;;;;9.88;59.00;94571.31;5055106;28;1128;-50
2021/12/02 11:25:19;;;;;;;;;;;;;;;9.38;59.76;94556.41;5055067;28;1083;-50
2021/12/02 11:27:48;;;;;;;;;;;;;;;9.16;59.89;94563.25;5055429;28;1021;-50
2021/12/02 11:30:17;;;;;;;;;;;;;;;8.99;60.87;94559.75;5055046;28;1052;-50
2021/12/02 11:32:51;;;;;;;;;;;;;;;8.86;61.36;94546.06;5054957;28;950;-49
2021/12/02 11:35:17;;;;;;;;;;;;;;;8.65;60.97;94552.75;5054232;28;986;-49
2021/12/02 11:37:45;;;;;;;;;;;;;;;8.81;60.66;94554.59;5054949;28;1981;-50
2021/12/02 11:40:16;;;;;;;;;;;;;;;8.99;60.66;94549.09;5054427;28;969;-50
2021/12/02 11:42:43;;;;;;;;;;;;;;;9.13;59.80;94547.59;5055008;28;1120;-50
2021/12/02 11:45:10;;;;;;;;;;;;;;;9.21;60.21;94534.25;5054582;28;1049;-50
2021/12/02 11:47:36;;;;;;;;;;;;;;;9.33;59.50;94532.94;5055196;28;1010;-50
2021/12/02 11:50:03;;;;;;;;;;;;;;;9.39;59.81;94528.75;5054524;28;1112;-50
2021/12/02 11:52:29;;;;;;;;;;;;;;;9.37;59.00;94534.25;5054719;28;1038;-50
2021/12/02 11:54:58;;;;;;;;;;;;;;;9.19;57.99;94523.75;5054295;28;1057;-50
2021/12/02 11:57:25;;;;;;;;;;;;;;;9.17;58.84;94531.09;5054888;28;1984;-50
2021/12/02 11:59:51;;;;;;;;;;;;;;;9.30;59.02;94530.59;5054093;28;1029;-50
2021/12/02 12:02:18;;;;;;;;;;;;;;;9.33;58.97;94518.75;5054637;28;1041;-50
2021/12/02 12:05:01;;;;;;;;;;;;;;;9.09;59.67;94525.78;5054356;28;969;-50
2021/12/02 12:24:17;;;;;;;;;;;;;;;9.63;57.04;94514.50;4470131;28;2305;-50
2021/12/02 12:26:45;;;;;;;;;;;;;;;9.66;56.21;94505.34;5054097;28;942;-50
2021/12/02 12:29:14;;;;;;;;;;;;;;;9.67;57.03;94490.97;5053813;28;1045;-50
2021/12/02 12:31:50;;;;;;;;;;;;;;;9.60;54.92;94490.84;5053940;28;986;-51
2021/12/02 12:35:17;;;;;;;;;;;;;;;9.40;57.51;94481.56;5054338;28;946;-50
2021/12/02 12:37:27;;;;;;;;;;;;;;;9.15;57.33;94481.59;5046268;28;1627;-50
2021/12/02 12:40:02;;;;;;;;;;;;;;;8.98;59.63;94484.25;5054003;28;1005;-50
2021/12/02 12:42:28;;;;;;;;;;;;;;;9.00;56.45;94489.44;5053762;28;978;-50
2021/12/02 12:44:55;;;;;;;;;;;;;;;9.06;55.73;94482.59;5053509;28;1025;-50
2021/12/02 12:47:40;;;;;;;;;;;;;;;9.16;56.41;94476.09;5053532;28;1024;-51
2021/12/02 12:50:21;;;;;;;;;;;;;;;9.08;58.85;94488.59;5053194;28;1046;-51
2021/12/02 12:52:52;;;;;;;;;;;;;;;8.93;59.74;94477.78;5053678;28;977;-51
2021/12/02 12:55:19;;;;;;;;;;;;;;;8.86;61.06;94466.97;5053498;28;956;-51
2021/12/02 12:58:03;;;;;;;;;;;;;;;8.75;61.13;94468.13;5053537;28;1979;-50
2021/12/02 13:00:44;;;;;;;;;;;;;;;8.62;60.71;94458.97;5053241;28;1045;-50
2021/12/02 13:03:14;;;;;;;;;;;;;;;8.67;61.24;94467.28;5053310;28;1902;-50
2021/12/02 13:05:59;;;;;;;;;;;;;;;8.55;60.48;94462.25;5053000;28;1051;-50
2021/12/02 13:08:34;;;;;;;;;;;;;;;8.62;60.36;94461.63;5053222;28;1025;-50
2021/12/02 13:11:01;;;;;;;;;;;;;;;8.69;60.32;94458.13;5052862;28;958;-50
2021/12/02 13:13:30;;;;;;;;;;;;;;;8.85;60.28;94457.28;5053166;28;1033;-50
2021/12/02 13:16:10;;;;;;;;;;;;;;;8.90;61.67;94449.63;5052949;28;989;-50
2021/12/02 13:18:38;;;;;;;;;;;;;;;9.04;60.64;94444.59;5052989;28;1906;-50
2021/12/02 13:21:28;;;;;;;;;;;;;;;9.10;61.14;94442.09;5052618;28;1053;-50
2021/12/02 13:24:07;;;;;;;;;;;;;;;8.90;61.66;94440.81;5047754;28;1725;-50
2021/12/02 13:26:39;;;;;;;;;;;;;;;8.81;60.93;94429.31;5052652;28;1017;-50
2021/12/02 13:29:04;;;;;;;;;;;;;;;8.74;61.30;94429.13;5052962;28;1013;-50
2021/12/02 13:31:31;;;;;;;;;;;;;;;8.58;62.15;94435.31;5052828;28;994;-50
2021/12/02 13:34:03;;;;;;;;;;;;;;;8.50;62.00;94427.31;5052910;28;1042;-50